Time;durP1;ratioP1;P1;durP2;ratioP2;P2;SDS_P1;SDS_P2;PMS_P1;PMS_P2;Temp;Humidity;BMP_temperature;BMP_pressure;BME280_temperature;BME280_humidity;BME280_pressure;Samples;Min_cycle;Max_cycle;Signal;HPM_P1;HPM_P2
2022/09/29 00:02:19;;;;;;;4.93;3.40;;;6.20;99.90;;;;;;4983914;28;20209;-72
2022/09/29 00:04:45;;;;;;;4.93;3.30;;;6.20;99.90;;;;;;4983611;28;20265;-70
2022/09/29 00:07:10;;;;;;;5.20;3.50;;;6.30;99.90;;;;;;4981467;28;20265;-72
2022/09/29 00:09:37;;;;;;;8.13;4.33;;;6.30;99.90;;;;;;4980970;28;20655;-72
2022/09/29 00:12:02;;;;;;;4.30;3.50;;;6.30;99.90;;;;;;4984071;28;20205;-73
2022/09/29 00:14:28;;;;;;;5.17;3.40;;;6.30;99.90;;;;;;4984217;28;20629;-72
2022/09/29 00:16:53;;;;;;;6.60;4.37;;;6.40;99.90;;;;;;4982436;28;20202;-71
2022/09/29 00:19:19;;;;;;;5.60;3.00;;;6.40;99.90;;;;;;4980910;28;20639;-71
2022/09/29 00:21:44;;;;;;;5.40;3.37;;;6.50;99.90;;;;;;4981735;28;20219;-72
2022/09/29 00:24:11;;;;;;;4.97;3.77;;;6.50;99.90;;;;;;4984091;28;20189;-71
2022/09/29 00:26:36;;;;;;;6.50;3.97;;;6.50;99.90;;;;;;4984307;28;20197;-71
2022/09/29 00:29:02;;;;;;;3.23;3.00;;;6.50;99.90;;;;;;4980706;28;21004;-72
2022/09/29 00:31:30;;;;;;;10.63;3.27;;;6.50;99.90;;;;;;4980677;28;20711;-72
2022/09/29 00:33:56;;;;;;;3.40;3.10;;;6.50;99.90;;;;;;4982802;28;20437;-73
2022/09/29 00:36:22;;;;;;;8.83;3.40;;;6.50;99.90;;;;;;4984339;28;20419;-73
2022/09/29 00:38:51;;;;;;;2.90;2.70;;;6.50;99.90;;;;;;4982733;28;20556;-73
2022/09/29 00:41:23;;;;;;;5.00;3.60;;;6.50;99.90;;;;;;4985582;28;20895;-72
2022/09/29 00:43:59;;;;;;;9.03;3.10;;;6.60;99.90;;;;;;4982017;28;20915;-72
2022/09/29 00:46:24;;;;;;;4.50;3.53;;;6.60;99.90;;;;;;4980918;28;20432;-72
2022/09/29 00:48:51;;;;;;;11.73;3.33;;;6.60;99.90;;;;;;4981730;28;20412;-72
2022/09/29 00:51:18;;;;;;;10.17;3.33;;;6.70;99.90;;;;;;4983921;28;20683;-72
2022/09/29 00:53:44;;;;;;;3.77;3.53;;;6.70;99.90;;;;;;4983320;28;20477;-72
2022/09/29 00:56:14;;;;;;;3.53;3.07;;;6.70;99.90;;;;;;4980487;28;20433;-71
2022/09/29 00:58:56;;;;;;;4.57;3.43;;;6.70;99.90;;;;;;4980342;28;20478;-73
2022/09/29 02:32:48;;;;;;;7.77;2.90;;;7.30;99.90;;;;;;5189841;22;20865;-70
2022/09/29 02:35:14;;;;;;;3.27;2.87;;;7.30;99.90;;;;;;5020825;28;20422;-72
2022/09/29 02:38:09;;;;;;;3.87;3.47;;;7.30;99.90;;;;;;5013646;28;20905;-72
2022/09/29 02:40:52;;;;;;;4.00;3.30;;;7.30;99.90;;;;;;5001919;28;20541;-72
2022/09/29 02:43:50;;;;;;;3.83;3.13;;;7.40;99.90;;;;;;5005227;28;21059;-71
2022/09/29 02:46:39;;;;;;;3.10;2.80;;;7.40;99.90;;;;;;5001019;28;20412;-72
2022/09/29 02:49:12;;;;;;;3.40;3.20;;;7.40;99.90;;;;;;5009721;28;20516;-69
2022/09/29 02:51:43;;;;;;;4.10;2.80;;;7.40;99.90;;;;;;5012481;28;20528;-72
2022/09/29 02:54:26;;;;;;;6.80;3.20;;;7.50;99.90;;;;;;5006406;28;20417;-72
2022/09/29 02:57:06;;;;;;;5.13;2.90;;;7.50;99.90;;;;;;5005353;28;20427;-73
2022/09/29 02:59:49;;;;;;;6.93;3.33;;;7.50;99.90;;;;;;4997906;28;20423;-71
2022/09/29 03:02:15;;;;;;;4.60;3.00;;;7.50;99.90;;;;;;5005191;28;20447;-72
2022/09/29 03:04:40;;;;;;;3.33;2.40;;;7.60;99.90;;;;;;5001115;28;20408;-72
2022/09/29 03:07:06;;;;;;;4.80;3.23;;;7.60;99.90;;;;;;5012576;28;20976;-72
2022/09/29 03:09:32;;;;;;;3.20;2.83;;;7.60;99.90;;;;;;5004870;28;20184;-71
2022/09/29 03:11:58;;;;;;;7.07;3.40;;;7.60;99.90;;;;;;5004960;28;20218;-71
2022/09/29 03:14:23;;;;;;;3.20;2.90;;;7.70;99.90;;;;;;5005374;28;20962;-72
2022/09/29 03:16:49;;;;;;;5.93;3.47;;;7.70;99.90;;;;;;5012978;28;20200;-72
2022/09/29 03:19:14;;;;;;;3.57;3.23;;;7.70;99.90;;;;;;5004912;28;20211;-73
2022/09/29 03:21:40;;;;;;;3.30;2.97;;;7.80;99.90;;;;;;4996449;28;20220;-73
2022/09/29 03:24:05;;;;;;;4.17;3.07;;;7.80;99.90;;;;;;5004871;28;20260;-73
2022/09/29 03:26:31;;;;;;;3.83;3.13;;;7.80;99.90;;;;;;5004580;28;20236;-72
2022/09/29 03:28:57;;;;;;;19.43;4.27;;;7.80;99.90;;;;;;5004476;28;20174;-72
2022/09/29 03:31:23;;;;;;;6.70;3.53;;;7.70;99.90;;;;;;5004716;28;20447;-72
2022/09/29 03:33:48;;;;;;;4.07;3.77;;;7.70;99.90;;;;;;5004350;28;20185;-72
2022/09/29 03:36:14;;;;;;;2.97;2.87;;;7.70;99.90;;;;;;5005112;28;20204;-72
2022/09/29 03:38:39;;;;;;;7.03;3.60;;;7.70;99.90;;;;;;5004235;28;20181;-72
2022/09/29 03:41:06;;;;;;;6.57;3.73;;;7.60;99.90;;;;;;5004265;28;20265;-72
2022/09/29 03:43:31;;;;;;;3.93;3.70;;;7.60;99.90;;;;;;5003212;28;20182;-72
2022/09/29 03:45:57;;;;;;;3.83;3.50;;;7.60;99.90;;;;;;5003965;28;20474;-72
2022/09/29 03:48:23;;;;;;;5.07;3.80;;;7.50;99.90;;;;;;5006646;28;20663;-72
2022/09/29 03:50:50;;;;;;;3.37;2.90;;;7.50;99.90;;;;;;5001982;28;20219;-72
2022/09/29 03:53:16;;;;;;;6.60;3.70;;;7.40;99.90;;;;;;5007284;28;20458;-72
2022/09/29 03:55:47;;;;;;;3.87;3.57;;;7.30;99.90;;;;;;5006234;28;20402;-72
2022/09/29 03:58:13;;;;;;;8.77;3.30;;;7.30;99.90;;;;;;5006633;28;20420;-72
2022/09/29 04:00:38;;;;;;;7.67;3.60;;;7.20;99.90;;;;;;5000991;28;20495;-73
2022/09/29 04:03:05;;;;;;;3.13;2.83;;;7.10;99.90;;;;;;4998551;28;20437;-73
2022/09/29 04:05:31;;;;;;;4.10;3.50;;;7.10;99.90;;;;;;4997353;28;20183;-72
2022/09/29 04:07:57;;;;;;;4.07;3.57;;;7.10;99.90;;;;;;5008804;28;20443;-72
2022/09/29 04:10:22;;;;;;;3.80;3.03;;;7.00;99.90;;;;;;4998777;28;20492;-74
2022/09/29 04:12:48;;;;;;;6.57;3.50;;;7.00;99.90;;;;;;5002465;28;20258;-72
2022/09/29 04:15:13;;;;;;;2.97;2.60;;;7.00;99.90;;;;;;5004637;28;20179;-72
2022/09/29 04:17:39;;;;;;;5.13;4.63;;;7.00;99.90;;;;;;5000451;28;20224;-73
2022/09/29 04:20:05;;;;;;;2.77;2.57;;;6.90;99.90;;;;;;5003487;28;20205;-72
2022/09/29 04:22:30;;;;;;;4.47;3.20;;;6.90;99.90;;;;;;5003716;28;20743;-73
2022/09/29 04:24:57;;;;;;;4.17;2.60;;;6.80;99.90;;;;;;5003460;28;20526;-72
2022/09/29 04:27:22;;;;;;;4.27;3.80;;;6.90;99.90;;;;;;5004099;28;20377;-72
2022/09/29 04:29:48;;;;;;;4.63;4.03;;;6.80;99.90;;;;;;5003225;28;20473;-72
2022/09/29 04:32:13;;;;;;;4.30;3.50;;;6.80;99.90;;;;;;4997664;28;20226;-72
2022/09/29 04:34:39;;;;;;;4.90;4.10;;;6.80;99.90;;;;;;5003280;28;20552;-74
2022/09/29 04:37:10;;;;;;;7.10;4.80;;;6.70;99.90;;;;;;5000121;28;20194;-72
2022/09/29 04:39:36;;;;;;;4.97;3.80;;;6.80;99.90;;;;;;5008165;28;20608;-73
2022/09/29 04:42:01;;;;;;;15.53;3.60;;;6.80;99.90;;;;;;5007067;28;20527;-72
2022/09/29 04:44:27;;;;;;;4.47;4.07;;;6.80;99.90;;;;;;5003868;28;20196;-72
2022/09/29 04:46:52;;;;;;;5.43;3.30;;;6.70;99.90;;;;;;4998116;28;20193;-72
2022/09/29 04:49:18;;;;;;;2.53;2.37;;;6.70;99.90;;;;;;5004917;28;20183;-72
2022/09/29 04:51:44;;;;;;;3.97;2.97;;;6.70;99.90;;;;;;5011410;28;20270;-73
2022/09/29 04:54:09;;;;;;;7.03;3.20;;;6.70;99.90;;;;;;5003632;28;20648;-73
2022/09/29 04:56:35;;;;;;;4.23;3.27;;;6.60;99.90;;;;;;5006519;28;20188;-72
2022/09/29 04:59:00;;;;;;;3.80;3.40;;;6.60;99.90;;;;;;4997324;28;20187;-72
2022/09/29 05:01:26;;;;;;;3.20;2.90;;;6.60;99.90;;;;;;5005008;28;20217;-71
2022/09/29 05:03:52;;;;;;;4.50;2.60;;;6.60;99.90;;;;;;5001806;28;20253;-72
2022/09/29 05:06:17;;;;;;;9.03;2.63;;;6.50;99.90;;;;;;5006260;28;20556;-71
2022/09/29 05:08:43;;;;;;;5.87;4.13;;;6.50;99.90;;;;;;5000170;28;20249;-71
2022/09/29 05:11:09;;;;;;;4.63;3.87;;;6.50;99.90;;;;;;5007794;28;20282;-71
2022/09/29 05:13:36;;;;;;;2.40;2.20;;;6.40;99.90;;;;;;4995918;28;20188;-71
2022/09/29 05:16:02;;;;;;;4.37;3.30;;;6.40;99.90;;;;;;5008037;28;20900;-71
2022/09/29 05:18:28;;;;;;;3.10;2.80;;;6.40;99.90;;;;;;4996985;28;20422;-72
2022/09/29 05:20:54;;;;;;;5.63;3.00;;;6.40;99.90;;;;;;5007582;28;20528;-73
2022/09/29 05:23:20;;;;;;;6.50;3.30;;;6.40;99.90;;;;;;4998500;28;20510;-72
2022/09/29 05:25:46;;;;;;;7.67;4.07;;;6.40;99.90;;;;;;5000406;28;20474;-72
2022/09/29 05:28:13;;;;;;;4.43;2.80;;;6.40;99.90;;;;;;5007786;28;20182;-72
2022/09/29 05:30:39;;;;;;;7.77;3.07;;;6.40;99.90;;;;;;5008857;28;20499;-73
2022/09/29 05:33:05;;;;;;;8.70;3.60;;;6.40;99.90;;;;;;5001071;28;20451;-72
2022/09/29 05:35:31;;;;;;;5.30;3.40;;;6.40;99.90;;;;;;5005990;28;20484;-72
2022/09/29 05:37:56;;;;;;;3.27;3.00;;;6.40;99.90;;;;;;5004631;28;20199;-72
2022/09/29 05:40:23;;;;;;;5.10;2.97;;;6.40;99.90;;;;;;5006717;28;20308;-72
2022/09/29 05:42:49;;;;;;;6.20;2.80;;;6.50;99.90;;;;;;5013095;28;20196;-71
2022/09/29 05:45:15;;;;;;;3.70;3.40;;;6.50;99.90;;;;;;5005784;28;20444;-72
2022/09/29 05:47:42;;;;;;;2.70;2.50;;;6.50;99.90;;;;;;5008882;28;20435;-71
2022/09/29 05:50:09;;;;;;;5.17;3.57;;;6.50;99.90;;;;;;4999464;28;20188;-72
2022/09/29 05:52:34;;;;;;;5.20;3.83;;;6.50;99.90;;;;;;5010494;28;20781;-72
2022/09/29 05:55:00;;;;;;;4.70;3.60;;;6.50;99.90;;;;;;5002267;28;20468;-72
2022/09/29 05:57:25;;;;;;;4.17;3.77;;;6.50;99.90;;;;;;5003470;28;20192;-71
2022/09/29 05:59:51;;;;;;;5.33;4.40;;;6.60;99.90;;;;;;5011869;28;20316;-72
2022/09/29 06:02:17;;;;;;;3.53;3.20;;;6.60;99.90;;;;;;5003989;28;20211;-72
2022/09/29 06:04:43;;;;;;;3.93;3.50;;;6.70;99.90;;;;;;5005930;28;20786;-71
2022/09/29 06:07:08;;;;;;;4.90;3.73;;;6.80;99.90;;;;;;5005610;28;20523;-73
2022/09/29 06:09:35;;;;;;;5.43;3.90;;;6.90;99.90;;;;;;5009742;28;20185;-72
2022/09/29 06:12:01;;;;;;;4.40;4.00;;;7.00;99.90;;;;;;5002993;28;20567;-72
2022/09/29 06:14:27;;;;;;;7.23;4.90;;;7.00;99.90;;;;;;5006055;28;20417;-72
2022/09/29 06:16:53;;;;;;;5.40;4.90;;;7.10;99.90;;;;;;5004744;28;20482;-72
2022/09/29 06:19:18;;;;;;;4.00;3.70;;;7.20;99.90;;;;;;5004503;28;20196;-72
2022/09/29 06:21:44;;;;;;;4.30;3.90;;;7.30;99.90;;;;;;5006797;28;20293;-72
2022/09/29 06:24:10;;;;;;;7.90;3.83;;;7.40;99.90;;;;;;5006061;28;20260;-72
2022/09/29 06:26:35;;;;;;;4.80;4.30;;;7.40;99.90;;;;;;5012304;28;20180;-72
2022/09/29 06:29:01;;;;;;;4.60;4.10;;;7.50;99.90;;;;;;5005566;28;20427;-72
2022/09/29 06:31:29;;;;;;;6.10;4.90;;;7.60;99.90;;;;;;5006106;28;20253;-73
2022/09/29 06:33:59;;;;;;;6.43;4.53;;;7.60;99.90;;;;;;5008522;28;20224;-71
2022/09/29 06:39:29;;;;;;;4.73;3.87;;;7.90;99.90;;;;;;5001112;28;20439;-72
2022/09/29 06:41:55;;;;;;;10.87;3.97;;;8.10;99.90;;;;;;5004255;28;20425;-73
2022/09/29 06:44:26;;;;;;;5.80;3.97;;;8.20;99.90;;;;;;5004135;28;20270;-72
2022/09/29 06:46:53;;;;;;;7.07;3.73;;;8.20;99.90;;;;;;5003893;28;20427;-72
2022/09/29 06:49:20;;;;;;;5.57;3.43;;;8.30;99.90;;;;;;5002630;28;20433;-72
2022/09/29 06:51:46;;;;;;;6.00;4.20;;;8.30;99.90;;;;;;5005198;28;20488;-72
2022/09/29 06:54:13;;;;;;;6.83;3.77;;;8.40;99.90;;;;;;5006912;28;20938;-72
2022/09/29 06:56:39;;;;;;;4.83;4.33;;;8.50;99.90;;;;;;5001986;28;20436;-72
2022/09/29 06:59:05;;;;;;;7.90;4.90;;;8.70;99.90;;;;;;5007078;28;20442;-72
2022/09/29 07:01:30;;;;;;;5.80;4.00;;;8.80;99.90;;;;;;5002451;28;20265;-72
2022/09/29 07:03:59;;;;;;;14.57;5.20;;;8.90;99.90;;;;;;5001279;28;20815;-73
2022/09/29 07:06:25;;;;;;;5.10;4.53;;;9.00;99.90;;;;;;5003443;28;20186;-71
2022/09/29 07:08:54;;;;;;;8.93;5.47;;;9.10;99.90;;;;;;5009491;28;20954;-71
2022/09/29 07:11:20;;;;;;;7.93;4.77;;;9.20;99.90;;;;;;5001590;28;20224;-71
2022/09/29 07:13:46;;;;;;;8.57;5.83;;;9.20;99.90;;;;;;5009175;28;20427;-71
2022/09/29 07:16:12;;;;;;;7.10;5.80;;;9.30;99.90;;;;;;5006251;28;20197;-72
2022/09/29 07:18:40;;;;;;;5.50;4.90;;;9.40;99.90;;;;;;5007909;28;20258;-72
2022/09/29 07:21:08;;;;;;;8.73;5.90;;;9.40;99.90;;;;;;5009092;28;20474;-72
2022/09/29 07:23:35;;;;;;;8.73;5.57;;;9.40;99.90;;;;;;5008480;28;20423;-72
2022/09/29 07:26:01;;;;;;;13.10;5.90;;;9.50;99.90;;;;;;5002036;28;20752;-72
2022/09/29 07:28:27;;;;;;;8.10;5.80;;;9.50;99.90;;;;;;5007733;28;20434;-73
2022/09/29 07:31:04;;;;;;;8.67;5.30;;;9.70;99.90;;;;;;5004055;28;20239;-68
2022/09/29 07:33:30;;;;;;;8.00;5.33;;;9.80;99.90;;;;;;5012611;28;20568;-70
2022/09/29 07:35:59;;;;;;;16.80;5.67;;;9.90;99.90;;;;;;5001035;28;20420;-67
2022/09/29 07:38:25;;;;;;;9.20;6.60;;;10.10;99.90;;;;;;5012432;28;20451;-68
2022/09/29 07:40:51;;;;;;;18.50;5.43;;;10.10;99.90;;;;;;5003759;28;20801;-69
2022/09/29 07:43:16;;;;;;;5.80;4.97;;;10.10;99.90;;;;;;5012479;28;20439;-70
2022/09/29 07:45:49;;;;;;;7.53;5.80;;;10.10;99.90;;;;;;5003802;28;20201;-70
2022/09/29 07:48:15;;;;;;;7.93;5.10;;;10.20;99.90;;;;;;5005884;28;20209;-71
2022/09/29 07:50:41;;;;;;;6.13;5.30;;;10.30;99.90;;;;;;5001804;28;20518;-70
2022/09/29 07:53:08;;;;;;;7.90;4.97;;;10.20;99.90;;;;;;5005008;28;20873;-71
2022/09/29 07:55:33;;;;;;;17.53;5.70;;;10.20;99.90;;;;;;5005556;28;20414;-70
2022/09/29 07:58:00;;;;;;;7.00;5.33;;;10.20;99.90;;;;;;5005848;28;20408;-71
2022/09/29 08:00:26;;;;;;;6.90;6.20;;;10.40;99.90;;;;;;5005652;28;20224;-70
2022/09/29 08:02:52;;;;;;;12.50;6.13;;;10.60;99.90;;;;;;4999511;28;20929;-70
2022/09/29 08:05:18;;;;;;;8.53;5.67;;;10.70;99.90;;;;;;5011778;28;20432;-70
2022/09/29 08:07:43;;;;;;;6.00;5.43;;;10.70;99.90;;;;;;5006853;28;20207;-71
2022/09/29 08:10:09;;;;;;;8.50;5.77;;;10.90;99.90;;;;;;5004507;28;20426;-71
2022/09/29 08:12:34;;;;;;;6.73;5.63;;;11.00;99.90;;;;;;5005825;28;20203;-70
2022/09/29 08:15:00;;;;;;;9.73;4.90;;;11.10;99.90;;;;;;5014733;28;20600;-71
2022/09/29 08:17:26;;;;;;;9.30;4.67;;;11.30;99.90;;;;;;5011250;28;20193;-70
2022/09/29 08:19:52;;;;;;;7.63;5.40;;;11.30;99.90;;;;;;5005041;28;20663;-71
2022/09/29 08:22:17;;;;;;;9.70;4.20;;;11.40;99.90;;;;;;5011461;28;20462;-70
2022/09/29 08:24:43;;;;;;;5.53;4.57;;;11.50;99.90;;;;;;5008364;28;20195;-70
2022/09/29 08:27:08;;;;;;;5.83;4.43;;;11.50;99.90;;;;;;5005046;28;20678;-71
2022/09/29 08:29:34;;;;;;;7.60;4.37;;;11.60;99.90;;;;;;5011865;28;20261;-70
2022/09/29 08:31:59;;;;;;;8.33;4.53;;;11.70;99.90;;;;;;5003022;28;20214;-70
2022/09/29 08:34:25;;;;;;;4.83;4.37;;;11.90;99.90;;;;;;5004612;28;20179;-70
2022/09/29 08:36:50;;;;;;;8.33;3.73;;;12.10;99.90;;;;;;5004542;28;20170;-70
2022/09/29 08:39:18;;;;;;;6.80;4.43;;;12.30;99.90;;;;;;5006360;28;20183;-70
2022/09/29 08:42:12;;;;;;;5.23;4.30;;;12.40;99.90;;;;;;5004619;28;20285;-70
2022/09/29 08:44:38;;;;;;;6.83;4.67;;;12.80;99.90;;;;;;4997041;28;20859;-71
2022/09/29 08:47:28;;;;;;;7.60;4.13;;;13.00;99.90;;;;;;5008968;28;20418;-71
2022/09/29 08:50:02;;;;;;;8.23;4.40;;;13.10;99.90;;;;;;5007847;28;20183;-71
2022/09/29 08:52:31;;;;;;;5.93;4.70;;;13.20;99.90;;;;;;5011752;28;20441;-71
2022/09/29 08:55:05;;;;;;;4.67;4.10;;;13.20;99.90;;;;;;5011414;28;20973;-73
2022/09/29 08:57:31;;;;;;;5.67;3.90;;;13.30;99.90;;;;;;5012037;28;20463;-72
2022/09/29 08:59:58;;;;;;;3.57;3.17;;;13.50;99.90;;;;;;5004446;28;20457;-73
2022/09/29 09:03:03;;;;;;;4.70;3.20;;;13.90;99.90;;;;;;5005232;28;20293;-72
2022/09/29 09:06:10;;;;;;;3.63;3.33;;;14.20;99.90;;;;;;5004911;28;20452;-72
2022/09/29 09:08:59;;;;;;;5.13;3.50;;;14.50;99.90;;;;;;5014056;28;20409;-71
2022/09/29 09:11:32;;;;;;;3.90;2.93;;;14.80;99.90;;;;;;5007950;28;20421;-72
2022/09/29 09:14:21;;;;;;;3.40;3.10;;;15.30;99.90;;;;;;5010139;28;20776;-72
2022/09/29 09:17:05;;;;;;;5.47;3.10;;;15.50;99.90;;;;;;5006208;28;20472;-71
2022/09/29 09:20:09;;;;;;;4.40;2.70;;;15.20;99.90;;;;;;5012327;28;20436;-71
2022/09/29 09:23:09;;;;;;;4.40;2.20;;;15.00;99.90;;;;;;5009426;28;20532;-71
2022/09/29 09:25:40;;;;;;;4.13;2.43;;;14.80;99.90;;;;;;4998757;28;20462;-71
2022/09/29 09:28:25;;;;;;;10.47;3.20;;;14.70;99.90;;;;;;5010959;28;20420;-71
2022/09/29 09:31:06;;;;;;;5.63;3.43;;;14.70;99.90;;;;;;5009814;28;20757;-71
2022/09/29 09:33:48;;;;;;;6.10;3.20;;;14.60;99.90;;;;;;5010384;28;20855;-71
2022/09/29 09:36:31;;;;;;;3.07;2.33;;;14.80;99.90;;;;;;5007974;28;20422;-71
2022/09/29 09:39:00;;;;;;;10.17;2.87;;;15.00;99.90;;;;;;5000991;28;20461;-71
2022/09/29 09:41:28;;;;;;;3.90;3.00;;;15.00;99.90;;;;;;5008835;28;20458;-71
2022/09/29 09:44:06;;;;;;;3.10;2.90;;;14.90;99.90;;;;;;5011458;28;20491;-71
2022/09/29 09:46:44;;;;;;;3.67;3.37;;;14.80;99.90;;;;;;5009717;28;20409;-71
2022/09/29 09:49:31;;;;;;;7.33;3.60;;;14.70;99.90;;;;;;5003308;28;20414;-72
2022/09/29 09:52:03;;;;;;;3.50;3.20;;;14.50;99.90;;;;;;5013598;28;20437;-72
2022/09/29 09:54:36;;;;;;;3.50;3.23;;;14.50;99.90;;;;;;5014796;28;20424;-72
2022/09/29 09:57:31;;;;;;;4.27;3.80;;;14.50;99.90;;;;;;5015052;28;20428;-72
2022/09/29 10:00:24;;;;;;;3.90;2.80;;;14.50;99.90;;;;;;5005321;28;20454;-72
2022/09/29 10:02:54;;;;;;;2.87;2.67;;;14.60;99.90;;;;;;4998177;28;20447;-71
2022/09/29 10:05:38;;;;;;;2.27;2.07;;;14.60;99.90;;;;;;5001693;28;20770;-71
2022/09/29 10:08:30;;;;;;;5.20;2.43;;;14.40;99.90;;;;;;5006403;28;20418;-71
2022/09/29 10:10:57;;;;;;;3.07;2.27;;;14.40;99.90;;;;;;5003943;28;20456;-71
2022/09/29 10:13:25;;;;;;;2.60;2.40;;;14.60;99.90;;;;;;5008847;28;20506;-71
2022/09/29 10:16:14;;;;;;;3.00;2.70;;;14.80;99.90;;;;;;4999997;28;20431;-72
2022/09/29 10:18:42;;;;;;;8.83;2.90;;;15.00;99.90;;;;;;5004559;28;20843;-71
2022/09/29 10:21:37;;;;;;;3.43;2.73;;;15.20;99.90;;;;;;5005594;28;20461;-71
2022/09/29 10:24:06;;;;;;;6.07;3.10;;;14.90;99.90;;;;;;5008034;28;20476;-71
2022/09/29 10:26:44;;;;;;;4.33;2.57;;;14.90;99.90;;;;;;5009844;28;20421;-71
2022/09/29 10:29:15;;;;;;;3.13;2.87;;;15.10;99.90;;;;;;5006985;28;20402;-71
2022/09/29 10:31:40;;;;;;;3.50;3.00;;;15.40;99.90;;;;;;5008279;28;20449;-71
2022/09/29 10:34:09;;;;;;;2.23;2.03;;;15.80;99.90;;;;;;5010696;28;20484;-72
2022/09/29 10:36:52;;;;;;;3.50;2.87;;;16.30;99.90;;;;;;5009453;28;20186;-72
2022/09/29 10:39:41;;;;;;;3.83;2.03;;;16.60;99.90;;;;;;5002141;28;20939;-71
2022/09/29 10:42:20;;;;;;;5.23;1.67;;;17.00;99.90;;;;;;5009601;28;20448;-72
2022/09/29 10:44:52;;;;;;;3.27;2.53;;;17.60;99.90;;;;;;5002322;28;20429;-71
2022/09/29 10:47:19;;;;;;;5.00;2.53;;;17.60;99.90;;;;;;5008658;28;20434;-73
2022/09/29 10:49:45;;;;;;;3.00;2.03;;;17.60;99.90;;;;;;5001986;28;20989;-72
2022/09/29 10:52:26;;;;;;;3.33;2.13;;;17.00;99.90;;;;;;5009677;28;20439;-72
2022/09/29 10:54:57;;;;;;;5.77;2.80;;;16.60;99.90;;;;;;5003345;28;20221;-71
2022/09/29 10:57:26;;;;;;;4.80;2.53;;;16.30;99.90;;;;;;5008269;28;20426;-71
2022/09/29 10:59:53;;;;;;;3.30;2.97;;;16.10;99.90;;;;;;5002699;28;20611;-69
2022/09/29 11:02:28;;;;;;;3.43;2.30;;;15.80;99.90;;;;;;5008451;28;20442;-71
2022/09/29 11:04:57;;;;;;;3.03;2.20;;;15.50;99.90;;;;;;5003336;28;20414;-72
2022/09/29 11:07:22;;;;;;;2.00;1.77;;;15.40;99.90;;;;;;5007834;28;20764;-71
2022/09/29 11:09:50;;;;;;;2.33;1.73;;;15.40;99.90;;;;;;5002105;28;20425;-71
2022/09/29 11:12:24;;;;;;;1.90;1.80;;;15.50;99.90;;;;;;5013422;28;20197;-71
2022/09/29 11:14:50;;;;;;;2.53;2.13;;;15.60;99.90;;;;;;5002139;28;20522;-71
2022/09/29 11:17:29;;;;;;;2.80;2.30;;;15.80;99.90;;;;;;5007464;28;20900;-70
2022/09/29 11:19:59;;;;;;;3.13;2.60;;;15.90;99.90;;;;;;5007818;28;20659;-71
2022/09/29 11:22:50;;;;;;;2.50;2.30;;;15.90;99.90;;;;;;5007134;28;20442;-69
2022/09/29 11:25:37;;;;;;;2.60;2.10;;;16.00;99.90;;;;;;5011213;28;20458;-71
2022/09/29 11:28:37;;;;;;;3.83;2.40;;;16.20;99.90;;;;;;5017699;28;20427;-71
2022/09/29 11:31:45;;;;;;;4.27;2.03;;;16.10;99.90;;;;;;5007903;28;21621;-76
2022/09/29 11:34:37;;;;;;;2.87;2.60;;;15.70;99.90;;;;;;5001677;28;20423;-71
2022/09/29 11:37:11;;;;;;;5.17;2.50;;;15.70;99.90;;;;;;5002131;28;20529;-71
2022/09/29 11:40:01;;;;;;;3.47;2.10;;;15.70;99.90;;;;;;5000804;28;20512;-72
2022/09/29 11:43:10;;;;;;;2.23;1.77;;;16.00;99.90;;;;;;5001290;28;20529;-72
2022/09/29 11:46:04;;;;;;;8.50;2.70;;;16.10;99.90;;;;;;5007563;28;20429;-71
2022/09/29 11:48:44;;;;;;;3.73;2.07;;;16.00;99.90;;;;;;5019130;28;20424;-72
2022/09/29 11:51:27;;;;;;;2.93;1.37;;;16.10;99.90;;;;;;5005940;28;20429;-72
2022/09/29 11:54:16;;;;;;;2.50;1.73;;;16.10;99.90;;;;;;5001257;28;20425;-72
2022/09/29 11:57:02;;;;;;;2.00;1.67;;;16.10;99.90;;;;;;5007577;28;20464;-71
2022/09/29 11:59:50;;;;;;;5.50;1.30;;;16.10;99.90;;;;;;4998037;28;20417;-71
2022/09/29 12:02:27;;;;;;;2.03;1.40;;;16.10;99.90;;;;;;4992343;28;20446;-71
2022/09/29 12:05:12;;;;;;;4.20;1.77;;;15.90;99.90;;;;;;5001953;28;20410;-71
2022/09/29 12:07:47;;;;;;;1.60;1.50;;;15.90;99.90;;;;;;5004737;28;20930;-72
2022/09/29 12:10:43;;;;;;;2.13;1.93;;;15.80;99.90;;;;;;5004751;28;20416;-72
2022/09/29 12:13:43;;;;;;;4.33;2.10;;;15.80;99.90;;;;;;5004439;28;20844;-71
2022/09/29 12:16:15;;;;;;;2.27;1.83;;;15.60;99.90;;;;;;5004373;28;20952;-72
2022/09/29 12:18:58;;;;;;;2.20;1.53;;;15.40;99.90;;;;;;5003835;28;20421;-72
2022/09/29 12:21:49;;;;;;;2.73;2.03;;;15.40;99.90;;;;;;5005880;28;20461;-72
2022/09/29 12:24:24;;;;;;;3.93;1.73;;;15.30;99.90;;;;;;5000529;28;20415;-72
2022/09/29 12:26:51;;;;;;;1.87;1.20;;;15.40;99.90;;;;;;5008371;28;20494;-72
2022/09/29 12:29:34;;;;;;;3.20;1.73;;;15.40;99.90;;;;;;5000445;28;20952;-72
2022/09/29 12:32:13;;;;;;;7.50;2.03;;;15.60;99.90;;;;;;5008351;28;20531;-72
2022/09/29 12:34:50;;;;;;;2.93;1.70;;;15.50;99.90;;;;;;5014740;28;20433;-71
2022/09/29 12:37:27;;;;;;;2.20;2.00;;;15.40;99.90;;;;;;4999689;28;20422;-72
2022/09/29 12:40:01;;;;;;;4.30;1.60;;;15.40;99.90;;;;;;5008465;28;20417;-72
2022/09/29 12:43:10;;;;;;;8.10;1.50;;;15.60;99.90;;;;;;5005565;28;20441;-73
2022/09/29 12:45:47;;;;;;;2.77;1.90;;;15.40;99.90;;;;;;4964843;28;20935;-71
2022/09/29 12:48:24;;;;;;;2.50;1.60;;;15.60;99.90;;;;;;4998334;28;20417;-72
2022/09/29 12:51:09;;;;;;;1.77;1.63;;;15.60;99.90;;;;;;4995109;28;20429;-71
2022/09/29 12:54:01;;;;;;;2.20;2.00;;;15.60;99.90;;;;;;5003300;28;20446;-71
2022/09/29 12:56:34;;;;;;;7.33;1.93;;;15.40;99.90;;;;;;5002987;28;20515;-71
2022/09/29 12:59:09;;;;;;;4.60;2.03;;;15.40;99.90;;;;;;5011580;28;20425;-71
2022/09/29 13:01:37;;;;;;;4.73;1.90;;;15.30;99.90;;;;;;5011275;28;20884;-72
2022/09/29 13:04:24;;;;;;;9.83;2.00;;;15.20;99.90;;;;;;5000656;28;20814;-71
2022/09/29 13:07:19;;;;;;;4.73;1.77;;;15.20;99.90;;;;;;5008008;28;20453;-72
2022/09/29 13:10:19;;;;;;;5.17;2.00;;;15.20;99.90;;;;;;4999601;28;20430;-72
2022/09/29 13:13:07;;;;;;;1.90;1.60;;;15.30;99.90;;;;;;5011002;28;20437;-72
2022/09/29 13:15:45;;;;;;;1.67;1.10;;;15.30;99.90;;;;;;5004583;28;20777;-72
2022/09/29 13:18:43;;;;;;;10.80;7.70;;;15.10;99.90;;;;;;5003640;28;20760;-71
2022/09/29 13:21:42;;;;;;;2.90;1.90;;;15.10;99.90;;;;;;5003024;28;20461;-72
2022/09/29 13:24:23;;;;;;;6.70;1.70;;;15.00;99.90;;;;;;5003319;28;20499;-72
2022/09/29 13:27:06;;;;;;;1.73;1.50;;;15.00;99.90;;;;;;5010388;28;20848;-71
2022/09/29 13:29:37;;;;;;;7.03;2.00;;;14.90;99.90;;;;;;5006198;28;20426;-71
2022/09/29 13:32:02;;;;;;;3.23;1.63;;;14.80;99.90;;;;;;5000117;28;20478;-72
2022/09/29 13:34:32;;;;;;;2.50;1.40;;;14.80;99.90;;;;;;4999725;28;20974;-72
2022/09/29 13:37:12;;;;;;;8.13;1.70;;;14.80;99.90;;;;;;5007907;28;20198;-72
2022/09/29 13:39:41;;;;;;;2.13;1.93;;;14.80;99.90;;;;;;5007085;28;20413;-71
2022/09/29 13:42:42;;;;;;;1.73;1.20;;;14.80;99.90;;;;;;5003068;28;20552;-72
2022/09/29 13:45:19;;;;;;;5.97;1.97;;;14.70;99.90;;;;;;5008223;28;20416;-71
2022/09/29 13:47:50;;;;;;;6.03;1.97;;;14.60;99.90;;;;;;4999588;28;20882;-71
2022/09/29 13:50:43;;;;;;;3.53;2.40;;;14.50;99.90;;;;;;5006510;28;20497;-71
2022/09/29 13:53:21;;;;;;;5.57;2.90;;;14.50;99.90;;;;;;5006592;28;20435;-72
2022/09/29 13:56:01;;;;;;;3.37;1.90;;;14.50;99.90;;;;;;5006119;28;20804;-71
2022/09/29 13:58:43;;;;;;;5.73;1.47;;;14.40;99.90;;;;;;5006627;28;20781;-72
2022/09/29 14:01:11;;;;;;;4.30;1.97;;;14.30;99.90;;;;;;5005745;28;20460;-72
2022/09/29 14:03:42;;;;;;;4.50;2.60;;;14.40;99.90;;;;;;5006205;28;20424;-72
2022/09/29 14:06:25;;;;;;;5.07;2.67;;;14.40;99.90;;;;;;5006147;28;20789;-71
2022/09/29 14:09:06;;;;;;;4.20;2.40;;;14.30;99.90;;;;;;5006083;28;20424;-72
2022/09/29 14:11:43;;;;;;;2.83;2.23;;;14.30;99.90;;;;;;5005832;28;20816;-72
2022/09/29 14:14:25;;;;;;;3.10;2.17;;;14.20;99.90;;;;;;5006157;28;20415;-71
2022/09/29 14:16:56;;;;;;;3.10;2.30;;;14.20;99.90;;;;;;5005044;28;20472;-71
2022/09/29 14:19:35;;;;;;;2.70;2.00;;;14.20;99.90;;;;;;5007917;28;20416;-71
2022/09/29 14:22:04;;;;;;;2.60;1.73;;;14.20;99.90;;;;;;5003288;28;20833;-71
2022/09/29 14:24:36;;;;;;;5.23;2.17;;;14.10;99.90;;;;;;5008695;28;20433;-71
2022/09/29 14:27:28;;;;;;;4.20;2.07;;;14.00;99.90;;;;;;5003427;28;20493;-72
2022/09/29 14:30:08;;;;;;;1.97;1.77;;;14.00;99.90;;;;;;5010201;28;20930;-71
2022/09/29 14:32:52;;;;;;;2.30;1.30;;;14.00;99.90;;;;;;5001988;28;20461;-71
2022/09/29 14:35:21;;;;;;;8.30;1.80;;;14.00;99.90;;;;;;5002599;28;20761;-70
2022/09/29 14:37:57;;;;;;;3.70;1.70;;;14.00;99.90;;;;;;5002576;28;20429;-71
2022/09/29 14:40:29;;;;;;;2.90;1.70;;;13.90;99.90;;;;;;5008208;28;20465;-71
2022/09/29 14:43:24;;;;;;;8.10;2.27;;;13.90;99.90;;;;;;5010313;28;20481;-71
2022/09/29 14:52:02;;;;;;;3.37;1.87;;;13.90;99.90;;;;;;5005095;28;20437;-72
2022/09/29 14:55:06;;;;;;;2.67;2.03;;;13.90;99.90;;;;;;5005110;28;20465;-71
2022/09/29 14:57:52;;;;;;;3.30;1.93;;;13.90;99.90;;;;;;4979271;28;20917;-71
2022/09/29 15:00:28;;;;;;;2.73;1.53;;;13.90;99.90;;;;;;5001617;28;20859;-71
2022/09/29 15:02:55;;;;;;;4.83;1.93;;;13.90;99.90;;;;;;5008885;28;20433;-72